sensor_id;sensor_type;location;lat;lon;timestamp;temperature;humidity
7658;DHT22;8462;53.156;8.220;2023-04-15T00:01:50;9.90;87.70
7658;DHT22;8462;53.156;8.220;2023-04-15T00:04:18;9.90;87.90
7658;DHT22;8462;53.156;8.220;2023-04-15T00:06:50;9.80;88.00
7658;DHT22;8462;53.156;8.220;2023-04-15T00:09:18;9.80;88.30
7658;DHT22;8462;53.156;8.220;2023-04-15T00:11:46;9.80;88.20
7658;DHT22;8462;53.156;8.220;2023-04-15T00:14:12;9.80;88.30
7658;DHT22;8462;53.156;8.220;2023-04-15T00:16:40;9.80;88.20
7658;DHT22;8462;53.156;8.220;2023-04-15T00:19:07;9.80;88.20
7658;DHT22;8462;53.156;8.220;2023-04-15T00:21:34;9.80;88.10
7658;DHT22;8462;53.156;8.220;2023-04-15T00:24:02;9.80;88.10
7658;DHT22;8462;53.156;8.220;2023-04-15T00:26:29;9.90;87.70
7658;DHT22;8462;53.156;8.220;2023-04-15T00:28:56;9.90;87.70
7658;DHT22;8462;53.156;8.220;2023-04-15T00:31:23;9.90;87.70
7658;DHT22;8462;53.156;8.220;2023-04-15T00:33:50;9.90;87.70
7658;DHT22;8462;53.156;8.220;2023-04-15T00:36:17;9.90;87.40
7658;DHT22;8462;53.156;8.220;2023-04-15T00:38:44;9.90;87.20
7658;DHT22;8462;53.156;8.220;2023-04-15T00:41:13;9.90;87.40
7658;DHT22;8462;53.156;8.220;2023-04-15T00:43:41;9.90;87.10
7658;DHT22;8462;53.156;8.220;2023-04-15T00:46:08;9.90;86.90
7658;DHT22;8462;53.156;8.220;2023-04-15T00:48:35;9.90;87.30
7658;DHT22;8462;53.156;8.220;2023-04-15T00:51:03;9.90;87.40
7658;DHT22;8462;53.156;8.220;2023-04-15T00:53:31;9.90;87.20
7658;DHT22;8462;53.156;8.220;2023-04-15T00:55:58;9.90;87.20
7658;DHT22;8462;53.156;8.220;2023-04-15T00:58:27;9.90;87.30
7658;DHT22;8462;53.156;8.220;2023-04-15T01:00:54;9.90;87.50
7658;DHT22;8462;53.156;8.220;2023-04-15T01:03:21;9.90;87.60
7658;DHT22;8462;53.156;8.220;2023-04-15T01:05:49;9.90;87.40
7658;DHT22;8462;53.156;8.220;2023-04-15T01:08:17;9.90;87.30
7658;DHT22;8462;53.156;8.220;2023-04-15T01:10:44;9.90;87.20
7658;DHT22;8462;53.156;8.220;2023-04-15T01:13:11;9.90;87.10
7658;DHT22;8462;53.156;8.220;2023-04-15T01:15:40;9.90;87.00
7658;DHT22;8462;53.156;8.220;2023-04-15T01:18:08;9.90;87.00
7658;DHT22;8462;53.156;8.220;2023-04-15T01:20:39;9.80;87.10
7658;DHT22;8462;53.156;8.220;2023-04-15T01:23:06;9.70;87.40
7658;DHT22;8462;53.156;8.220;2023-04-15T01:25:34;9.70;87.80
7658;DHT22;8462;53.156;8.220;2023-04-15T01:28:02;9.60;88.20
7658;DHT22;8462;53.156;8.220;2023-04-15T01:30:33;9.60;88.50
7658;DHT22;8462;53.156;8.220;2023-04-15T01:33:00;9.60;88.70
7658;DHT22;8462;53.156;8.220;2023-04-15T01:35:33;9.50;89.00
7658;DHT22;8462;53.156;8.220;2023-04-15T01:38:04;9.50;89.20
7658;DHT22;8462;53.156;8.220;2023-04-15T01:40:31;9.50;89.50
7658;DHT22;8462;53.156;8.220;2023-04-15T01:42:59;9.40;89.70
7658;DHT22;8462;53.156;8.220;2023-04-15T01:45:26;9.40;90.00
7658;DHT22;8462;53.156;8.220;2023-04-15T01:47:53;9.40;90.00
7658;DHT22;8462;53.156;8.220;2023-04-15T01:50:20;9.40;90.10
7658;DHT22;8462;53.156;8.220;2023-04-15T01:52:47;9.40;90.20
7658;DHT22;8462;53.156;8.220;2023-04-15T01:55:14;9.40;90.30
7658;DHT22;8462;53.156;8.220;2023-04-15T01:57:41;9.30;90.40
7658;DHT22;8462;53.156;8.220;2023-04-15T02:00:10;9.30;90.50
7658;DHT22;8462;53.156;8.220;2023-04-15T02:02:40;9.30;90.60
7658;DHT22;8462;53.156;8.220;2023-04-15T02:05:08;9.30;90.60
7658;DHT22;8462;53.156;8.220;2023-04-15T02:07:36;9.30;90.70
7658;DHT22;8462;53.156;8.220;2023-04-15T02:10:03;9.30;91.00
7658;DHT22;8462;53.156;8.220;2023-04-15T02:12:30;9.20;91.10
7658;DHT22;8462;53.156;8.220;2023-04-15T02:14:57;9.20;91.20
7658;DHT22;8462;53.156;8.220;2023-04-15T02:17:25;9.20;91.30
7658;DHT22;8462;53.156;8.220;2023-04-15T02:19:53;9.20;91.40
7658;DHT22;8462;53.156;8.220;2023-04-15T02:22:21;9.20;91.50
7658;DHT22;8462;53.156;8.220;2023-04-15T02:24:48;9.20;91.50
7658;DHT22;8462;53.156;8.220;2023-04-15T02:27:15;9.20;91.60
7658;DHT22;8462;53.156;8.220;2023-04-15T02:29:43;9.20;91.60
7658;DHT22;8462;53.156;8.220;2023-04-15T02:32:10;9.20;91.50
7658;DHT22;8462;53.156;8.220;2023-04-15T02:34:39;9.20;91.50
7658;DHT22;8462;53.156;8.220;2023-04-15T02:37:08;9.30;91.40
7658;DHT22;8462;53.156;8.220;2023-04-15T02:39:36;9.30;91.50
7658;DHT22;8462;53.156;8.220;2023-04-15T02:42:03;9.30;91.50
7658;DHT22;8462;53.156;8.220;2023-04-15T02:44:30;9.20;91.50
7658;DHT22;8462;53.156;8.220;2023-04-15T02:47:01;9.30;91.50
7658;DHT22;8462;53.156;8.220;2023-04-15T02:49:30;9.30;91.60
7658;DHT22;8462;53.156;8.220;2023-04-15T02:51:58;9.20;91.60
7658;DHT22;8462;53.156;8.220;2023-04-15T02:54:25;9.30;91.60
7658;DHT22;8462;53.156;8.220;2023-04-15T02:56:53;9.30;91.40
7658;DHT22;8462;53.156;8.220;2023-04-15T02:59:23;9.30;91.30
7658;DHT22;8462;53.156;8.220;2023-04-15T03:01:50;9.30;91.40
7658;DHT22;8462;53.156;8.220;2023-04-15T03:04:17;9.30;91.30
7658;DHT22;8462;53.156;8.220;2023-04-15T03:06:44;9.20;91.20
7658;DHT22;8462;53.156;8.220;2023-04-15T03:09:13;9.20;91.30
7658;DHT22;8462;53.156;8.220;2023-04-15T03:11:39;9.20;91.30
7658;DHT22;8462;53.156;8.220;2023-04-15T03:14:08;9.20;91.30
7658;DHT22;8462;53.156;8.220;2023-04-15T03:16:39;9.10;91.40
7658;DHT22;8462;53.156;8.220;2023-04-15T03:19:06;9.10;91.40
7658;DHT22;8462;53.156;8.220;2023-04-15T03:21:33;9.10;91.60
7658;DHT22;8462;53.156;8.220;2023-04-15T03:24:00;9.10;91.80
7658;DHT22;8462;53.156;8.220;2023-04-15T03:26:30;9.20;91.70
7658;DHT22;8462;53.156;8.220;2023-04-15T03:29:00;9.20;91.70
7658;DHT22;8462;53.156;8.220;2023-04-15T03:31:27;9.20;91.60
7658;DHT22;8462;53.156;8.220;2023-04-15T03:33:54;9.20;91.40
7658;DHT22;8462;53.156;8.220;2023-04-15T03:36:22;9.20;91.40
7658;DHT22;8462;53.156;8.220;2023-04-15T03:38:49;9.20;91.50
7658;DHT22;8462;53.156;8.220;2023-04-15T03:41:16;9.20;91.60
7658;DHT22;8462;53.156;8.220;2023-04-15T03:43:44;9.10;91.60
7658;DHT22;8462;53.156;8.220;2023-04-15T03:46:11;9.20;91.60
7658;DHT22;8462;53.156;8.220;2023-04-15T03:48:38;9.10;91.60
7658;DHT22;8462;53.156;8.220;2023-04-15T03:51:05;9.20;91.90
7658;DHT22;8462;53.156;8.220;2023-04-15T03:53:31;9.10;92.00
7658;DHT22;8462;53.156;8.220;2023-04-15T03:55:58;9.20;92.10
7658;DHT22;8462;53.156;8.220;2023-04-15T03:58:26;9.20;92.00
7658;DHT22;8462;53.156;8.220;2023-04-15T04:00:54;9.20;92.00
7658;DHT22;8462;53.156;8.220;2023-04-15T04:03:21;9.20;92.10
7658;DHT22;8462;53.156;8.220;2023-04-15T04:05:48;9.20;92.20
7658;DHT22;8462;53.156;8.220;2023-04-15T04:08:15;9.30;92.20
7658;DHT22;8462;53.156;8.220;2023-04-15T04:10:44;9.30;92.10
7658;DHT22;8462;53.156;8.220;2023-04-15T04:13:11;9.30;92.20
7658;DHT22;8462;53.156;8.220;2023-04-15T04:15:37;9.40;92.20
7658;DHT22;8462;53.156;8.220;2023-04-15T04:18:06;9.40;92.30
7658;DHT22;8462;53.156;8.220;2023-04-15T04:20:33;9.40;92.30
7658;DHT22;8462;53.156;8.220;2023-04-15T04:23:00;9.50;92.70
7658;DHT22;8462;53.156;8.220;2023-04-15T04:25:27;9.60;92.30
7658;DHT22;8462;53.156;8.220;2023-04-15T04:27:53;9.60;92.10
7658;DHT22;8462;53.156;8.220;2023-04-15T04:30:20;9.60;92.10
7658;DHT22;8462;53.156;8.220;2023-04-15T04:32:48;9.60;91.90
7658;DHT22;8462;53.156;8.220;2023-04-15T04:35:18;9.60;92.00
7658;DHT22;8462;53.156;8.220;2023-04-15T04:37:45;9.60;92.30
7658;DHT22;8462;53.156;8.220;2023-04-15T04:40:12;9.60;92.30
7658;DHT22;8462;53.156;8.220;2023-04-15T04:42:39;9.60;92.40
7658;DHT22;8462;53.156;8.220;2023-04-15T04:45:06;9.70;92.50
7658;DHT22;8462;53.156;8.220;2023-04-15T04:47:34;9.70;92.60
7658;DHT22;8462;53.156;8.220;2023-04-15T04:50:01;9.70;92.40
7658;DHT22;8462;53.156;8.220;2023-04-15T04:52:29;9.70;92.60
7658;DHT22;8462;53.156;8.220;2023-04-15T04:54:56;9.80;92.70
7658;DHT22;8462;53.156;8.220;2023-04-15T04:57:23;9.80;92.60
7658;DHT22;8462;53.156;8.220;2023-04-15T04:59:50;9.80;92.70
7658;DHT22;8462;53.156;8.220;2023-04-15T05:02:17;9.80;92.80
7658;DHT22;8462;53.156;8.220;2023-04-15T05:04:44;9.90;92.90
7658;DHT22;8462;53.156;8.220;2023-04-15T05:07:10;10.00;93.10
7658;DHT22;8462;53.156;8.220;2023-04-15T05:09:39;10.10;92.80
7658;DHT22;8462;53.156;8.220;2023-04-15T05:12:06;10.10;92.60
7658;DHT22;8462;53.156;8.220;2023-04-15T05:14:33;10.20;92.70
7658;DHT22;8462;53.156;8.220;2023-04-15T05:17:00;10.20;92.50
7658;DHT22;8462;53.156;8.220;2023-04-15T05:19:28;10.20;92.50
7658;DHT22;8462;53.156;8.220;2023-04-15T05:21:55;10.20;92.40
7658;DHT22;8462;53.156;8.220;2023-04-15T05:24:22;10.20;92.50
7658;DHT22;8462;53.156;8.220;2023-04-15T05:26:51;10.20;92.60
7658;DHT22;8462;53.156;8.220;2023-04-15T05:29:17;10.30;92.80
7658;DHT22;8462;53.156;8.220;2023-04-15T05:31:44;10.30;93.20
7658;DHT22;8462;53.156;8.220;2023-04-15T05:34:11;10.40;92.40
7658;DHT22;8462;53.156;8.220;2023-04-15T05:36:42;10.40;92.50
7658;DHT22;8462;53.156;8.220;2023-04-15T05:39:09;10.40;92.50
7658;DHT22;8462;53.156;8.220;2023-04-15T05:41:36;10.50;92.70
7658;DHT22;8462;53.156;8.220;2023-04-15T05:44:05;10.50;92.70
7658;DHT22;8462;53.156;8.220;2023-04-15T05:46:31;10.50;92.60
7658;DHT22;8462;53.156;8.220;2023-04-15T05:48:58;10.50;93.00
7658;DHT22;8462;53.156;8.220;2023-04-15T05:51:25;10.50;93.20
7658;DHT22;8462;53.156;8.220;2023-04-15T05:53:52;10.70;93.00
7658;DHT22;8462;53.156;8.220;2023-04-15T05:56:19;10.60;92.80
7658;DHT22;8462;53.156;8.220;2023-04-15T05:58:46;10.60;92.60
7658;DHT22;8462;53.156;8.220;2023-04-15T06:01:14;10.60;92.70
7658;DHT22;8462;53.156;8.220;2023-04-15T06:03:42;10.60;93.20
7658;DHT22;8462;53.156;8.220;2023-04-15T06:06:10;10.50;93.10
7658;DHT22;8462;53.156;8.220;2023-04-15T06:08:38;10.50;93.70
7658;DHT22;8462;53.156;8.220;2023-04-15T06:11:04;10.50;93.80
7658;DHT22;8462;53.156;8.220;2023-04-15T06:13:31;10.50;93.80
7658;DHT22;8462;53.156;8.220;2023-04-15T06:15:59;10.40;94.10
7658;DHT22;8462;53.156;8.220;2023-04-15T06:18:27;10.40;94.70
7658;DHT22;8462;53.156;8.220;2023-04-15T06:20:54;10.40;94.60
7658;DHT22;8462;53.156;8.220;2023-04-15T06:23:21;10.40;95.00
7658;DHT22;8462;53.156;8.220;2023-04-15T06:25:48;10.40;95.20
7658;DHT22;8462;53.156;8.220;2023-04-15T06:28:16;10.40;95.40
7658;DHT22;8462;53.156;8.220;2023-04-15T06:30:43;10.40;95.70
7658;DHT22;8462;53.156;8.220;2023-04-15T06:33:10;10.40;96.20
7658;DHT22;8462;53.156;8.220;2023-04-15T06:35:38;10.40;96.30
7658;DHT22;8462;53.156;8.220;2023-04-15T06:38:05;10.40;96.30
7658;DHT22;8462;53.156;8.220;2023-04-15T06:40:32;10.50;96.10
7658;DHT22;8462;53.156;8.220;2023-04-15T06:42:59;10.50;96.60
7658;DHT22;8462;53.156;8.220;2023-04-15T06:45:26;10.50;96.80
7658;DHT22;8462;53.156;8.220;2023-04-15T06:47:53;10.60;97.30
7658;DHT22;8462;53.156;8.220;2023-04-15T06:50:20;10.60;97.50
7658;DHT22;8462;53.156;8.220;2023-04-15T06:52:48;10.60;97.80
7658;DHT22;8462;53.156;8.220;2023-04-15T06:55:15;10.60;98.70
7658;DHT22;8462;53.156;8.220;2023-04-15T06:57:42;10.50;99.80
7658;DHT22;8462;53.156;8.220;2023-04-15T07:00:10;10.60;99.90
7658;DHT22;8462;53.156;8.220;2023-04-15T07:02:37;10.60;99.90
7658;DHT22;8462;53.156;8.220;2023-04-15T07:05:05;10.60;99.90
7658;DHT22;8462;53.156;8.220;2023-04-15T07:07:32;10.60;99.90
7658;DHT22;8462;53.156;8.220;2023-04-15T07:10:02;10.60;99.90
7658;DHT22;8462;53.156;8.220;2023-04-15T07:12:29;10.60;99.90
7658;DHT22;8462;53.156;8.220;2023-04-15T07:14:55;10.60;99.90
7658;DHT22;8462;53.156;8.220;2023-04-15T07:17:23;10.50;99.90
7658;DHT22;8462;53.156;8.220;2023-04-15T07:19:50;10.60;99.90
7658;DHT22;8462;53.156;8.220;2023-04-15T07:22:17;10.60;99.90
7658;DHT22;8462;53.156;8.220;2023-04-15T07:24:44;10.60;99.90
7658;DHT22;8462;53.156;8.220;2023-04-15T07:27:12;10.50;99.90
7658;DHT22;8462;53.156;8.220;2023-04-15T07:29:39;10.50;99.90
7658;DHT22;8462;53.156;8.220;2023-04-15T07:32:06;10.50;99.90
7658;DHT22;8462;53.156;8.220;2023-04-15T07:34:35;10.50;99.90
7658;DHT22;8462;53.156;8.220;2023-04-15T07:37:02;10.50;99.90
7658;DHT22;8462;53.156;8.220;2023-04-15T07:39:29;10.40;99.90
7658;DHT22;8462;53.156;8.220;2023-04-15T07:41:56;10.40;99.90
7658;DHT22;8462;53.156;8.220;2023-04-15T07:44:25;10.40;99.90
7658;DHT22;8462;53.156;8.220;2023-04-15T07:46:52;10.40;99.90
7658;DHT22;8462;53.156;8.220;2023-04-15T07:49:19;10.40;99.90
7658;DHT22;8462;53.156;8.220;2023-04-15T07:51:46;10.50;99.90
7658;DHT22;8462;53.156;8.220;2023-04-15T07:54:13;10.50;99.90
7658;DHT22;8462;53.156;8.220;2023-04-15T07:56:41;10.50;99.90
7658;DHT22;8462;53.156;8.220;2023-04-15T07:59:08;10.60;99.90
7658;DHT22;8462;53.156;8.220;2023-04-15T08:01:36;10.60;99.90
7658;DHT22;8462;53.156;8.220;2023-04-15T08:04:03;10.70;99.90
7658;DHT22;8462;53.156;8.220;2023-04-15T08:06:30;10.70;99.90
7658;DHT22;8462;53.156;8.220;2023-04-15T08:08:57;10.70;99.90
7658;DHT22;8462;53.156;8.220;2023-04-15T08:11:24;10.80;99.90
7658;DHT22;8462;53.156;8.220;2023-04-15T08:13:52;10.90;99.90
7658;DHT22;8462;53.156;8.220;2023-04-15T08:16:20;11.00;99.90
7658;DHT22;8462;53.156;8.220;2023-04-15T08:18:50;11.00;99.90
7658;DHT22;8462;53.156;8.220;2023-04-15T08:21:18;11.00;99.90
7658;DHT22;8462;53.156;8.220;2023-04-15T08:23:46;11.00;99.90
7658;DHT22;8462;53.156;8.220;2023-04-15T08:26:14;11.10;99.90
7658;DHT22;8462;53.156;8.220;2023-04-15T08:28:42;11.00;99.90
7658;DHT22;8462;53.156;8.220;2023-04-15T08:31:10;11.10;99.90
7658;DHT22;8462;53.156;8.220;2023-04-15T08:33:37;11.00;99.90
7658;DHT22;8462;53.156;8.220;2023-04-15T08:36:06;11.00;99.90
7658;DHT22;8462;53.156;8.220;2023-04-15T08:38:33;10.90;99.90
7658;DHT22;8462;53.156;8.220;2023-04-15T08:41:03;10.90;99.90
7658;DHT22;8462;53.156;8.220;2023-04-15T08:43:34;11.00;99.90
7658;DHT22;8462;53.156;8.220;2023-04-15T08:46:01;10.90;99.90
7658;DHT22;8462;53.156;8.220;2023-04-15T08:48:32;10.90;99.90
7658;DHT22;8462;53.156;8.220;2023-04-15T08:50:59;10.90;99.90
7658;DHT22;8462;53.156;8.220;2023-04-15T08:53:29;11.00;99.90
7658;DHT22;8462;53.156;8.220;2023-04-15T08:55:57;11.00;99.90
7658;DHT22;8462;53.156;8.220;2023-04-15T08:58:26;10.90;99.90
7658;DHT22;8462;53.156;8.220;2023-04-15T09:00:53;10.90;99.90
7658;DHT22;8462;53.156;8.220;2023-04-15T09:03:20;10.90;99.90
7658;DHT22;8462;53.156;8.220;2023-04-15T09:05:49;10.90;99.90
7658;DHT22;8462;53.156;8.220;2023-04-15T09:08:16;10.90;99.90
7658;DHT22;8462;53.156;8.220;2023-04-15T09:10:44;10.80;99.90
7658;DHT22;8462;53.156;8.220;2023-04-15T09:13:11;10.80;99.90
7658;DHT22;8462;53.156;8.220;2023-04-15T09:15:39;10.80;99.90
7658;DHT22;8462;53.156;8.220;2023-04-15T09:18:06;10.80;99.90
7658;DHT22;8462;53.156;8.220;2023-04-15T09:20:38;10.90;99.90
7658;DHT22;8462;53.156;8.220;2023-04-15T09:23:11;11.00;99.90
7658;DHT22;8462;53.156;8.220;2023-04-15T09:25:39;11.10;99.90
7658;DHT22;8462;53.156;8.220;2023-04-15T09:28:09;11.10;99.90
7658;DHT22;8462;53.156;8.220;2023-04-15T09:30:36;11.10;99.90
7658;DHT22;8462;53.156;8.220;2023-04-15T09:33:03;11.10;99.90
7658;DHT22;8462;53.156;8.220;2023-04-15T09:35:33;11.20;99.90
7658;DHT22;8462;53.156;8.220;2023-04-15T09:38:02;11.20;99.90
7658;DHT22;8462;53.156;8.220;2023-04-15T09:40:31;11.20;99.90
7658;DHT22;8462;53.156;8.220;2023-04-15T09:43:00;11.10;99.90
7658;DHT22;8462;53.156;8.220;2023-04-15T09:45:29;11.10;99.90
7658;DHT22;8462;53.156;8.220;2023-04-15T09:47:56;11.10;99.90
7658;DHT22;8462;53.156;8.220;2023-04-15T09:50:26;11.10;99.90
7658;DHT22;8462;53.156;8.220;2023-04-15T09:52:54;11.00;99.90
7658;DHT22;8462;53.156;8.220;2023-04-15T09:55:21;11.00;99.90
7658;DHT22;8462;53.156;8.220;2023-04-15T09:57:48;11.00;99.90
7658;DHT22;8462;53.156;8.220;2023-04-15T10:00:15;11.00;99.90
7658;DHT22;8462;53.156;8.220;2023-04-15T10:02:44;11.00;99.90
7658;DHT22;8462;53.156;8.220;2023-04-15T10:05:14;11.00;99.90
7658;DHT22;8462;53.156;8.220;2023-04-15T10:07:42;11.00;99.90
7658;DHT22;8462;53.156;8.220;2023-04-15T10:10:11;11.00;99.90
7658;DHT22;8462;53.156;8.220;2023-04-15T10:12:40;11.00;99.90
7658;DHT22;8462;53.156;8.220;2023-04-15T10:15:14;11.00;99.90
7658;DHT22;8462;53.156;8.220;2023-04-15T10:17:44;11.00;99.90
7658;DHT22;8462;53.156;8.220;2023-04-15T10:20:11;10.90;99.90
7658;DHT22;8462;53.156;8.220;2023-04-15T10:22:40;10.90;99.90
7658;DHT22;8462;53.156;8.220;2023-04-15T10:25:09;10.90;99.90
7658;DHT22;8462;53.156;8.220;2023-04-15T10:27:38;10.90;99.90
7658;DHT22;8462;53.156;8.220;2023-04-15T10:30:07;10.90;99.90
7658;DHT22;8462;53.156;8.220;2023-04-15T10:32:35;11.00;99.90
7658;DHT22;8462;53.156;8.220;2023-04-15T10:35:04;11.00;99.90
7658;DHT22;8462;53.156;8.220;2023-04-15T10:37:33;11.10;99.90
7658;DHT22;8462;53.156;8.220;2023-04-15T10:40:25;11.20;99.90
7658;DHT22;8462;53.156;8.220;2023-04-15T10:42:53;11.30;99.90
7658;DHT22;8462;53.156;8.220;2023-04-15T10:45:21;11.40;99.90
7658;DHT22;8462;53.156;8.220;2023-04-15T10:47:54;11.40;99.90
7658;DHT22;8462;53.156;8.220;2023-04-15T10:50:25;11.50;99.90
7658;DHT22;8462;53.156;8.220;2023-04-15T10:52:53;11.60;99.90
7658;DHT22;8462;53.156;8.220;2023-04-15T10:55:22;11.60;99.90
7658;DHT22;8462;53.156;8.220;2023-04-15T10:57:51;11.60;99.90
7658;DHT22;8462;53.156;8.220;2023-04-15T11:00:23;11.60;99.90
7658;DHT22;8462;53.156;8.220;2023-04-15T11:02:53;11.60;99.90
7658;DHT22;8462;53.156;8.220;2023-04-15T11:05:50;11.60;99.90
7658;DHT22;8462;53.156;8.220;2023-04-15T11:08:17;11.60;99.90
7658;DHT22;8462;53.156;8.220;2023-04-15T11:10:53;11.60;99.90
7658;DHT22;8462;53.156;8.220;2023-04-15T11:13:22;11.60;99.90
7658;DHT22;8462;53.156;8.220;2023-04-15T11:15:53;11.60;99.90
7658;DHT22;8462;53.156;8.220;2023-04-15T11:18:22;11.50;99.90
7658;DHT22;8462;53.156;8.220;2023-04-15T11:20:52;11.60;99.90
7658;DHT22;8462;53.156;8.220;2023-04-15T11:23:27;11.50;99.90
7658;DHT22;8462;53.156;8.220;2023-04-15T11:25:55;11.50;99.90
7658;DHT22;8462;53.156;8.220;2023-04-15T11:28:24;11.50;99.90
7658;DHT22;8462;53.156;8.220;2023-04-15T11:30:52;11.50;99.90
7658;DHT22;8462;53.156;8.220;2023-04-15T11:33:20;11.60;99.90
7658;DHT22;8462;53.156;8.220;2023-04-15T11:35:53;11.60;99.90
7658;DHT22;8462;53.156;8.220;2023-04-15T11:38:20;11.60;99.90
7658;DHT22;8462;53.156;8.220;2023-04-15T11:40:49;11.60;99.90
7658;DHT22;8462;53.156;8.220;2023-04-15T11:43:18;11.50;99.90
7658;DHT22;8462;53.156;8.220;2023-04-15T11:45:53;11.40;99.90
7658;DHT22;8462;53.156;8.220;2023-04-15T11:48:22;11.40;99.90
7658;DHT22;8462;53.156;8.220;2023-04-15T11:50:54;11.40;99.90
7658;DHT22;8462;53.156;8.220;2023-04-15T11:53:22;11.50;99.90
7658;DHT22;8462;53.156;8.220;2023-04-15T11:55:50;11.50;99.90
7658;DHT22;8462;53.156;8.220;2023-04-15T11:58:18;11.50;99.90
7658;DHT22;8462;53.156;8.220;2023-04-15T12:00:47;11.50;99.90
7658;DHT22;8462;53.156;8.220;2023-04-15T12:03:17;11.50;99.90
7658;DHT22;8462;53.156;8.220;2023-04-15T12:06:12;11.50;99.90
7658;DHT22;8462;53.156;8.220;2023-04-15T12:08:57;11.50;99.90
7658;DHT22;8462;53.156;8.220;2023-04-15T12:11:44;11.40;99.90
7658;DHT22;8462;53.156;8.220;2023-04-15T12:14:18;11.40;99.90
7658;DHT22;8462;53.156;8.220;2023-04-15T12:16:48;11.30;99.90
7658;DHT22;8462;53.156;8.220;2023-04-15T12:19:19;11.20;99.90
7658;DHT22;8462;53.156;8.220;2023-04-15T12:21:49;11.20;99.90
7658;DHT22;8462;53.156;8.220;2023-04-15T12:24:19;11.30;99.90
7658;DHT22;8462;53.156;8.220;2023-04-15T12:26:48;11.30;99.90
7658;DHT22;8462;53.156;8.220;2023-04-15T12:29:16;11.30;99.90
7658;DHT22;8462;53.156;8.220;2023-04-15T12:31:50;11.40;99.90
7658;DHT22;8462;53.156;8.220;2023-04-15T12:34:18;11.50;99.90
7658;DHT22;8462;53.156;8.220;2023-04-15T12:36:52;11.50;99.90
7658;DHT22;8462;53.156;8.220;2023-04-15T12:39:21;11.50;99.90
7658;DHT22;8462;53.156;8.220;2023-04-15T12:41:48;11.60;99.90
7658;DHT22;8462;53.156;8.220;2023-04-15T12:44:15;11.60;99.90
7658;DHT22;8462;53.156;8.220;2023-04-15T12:46:42;11.70;99.90
7658;DHT22;8462;53.156;8.220;2023-04-15T12:49:09;11.70;99.90
7658;DHT22;8462;53.156;8.220;2023-04-15T12:51:36;11.80;99.90
7658;DHT22;8462;53.156;8.220;2023-04-15T12:54:04;11.80;99.90
7658;DHT22;8462;53.156;8.220;2023-04-15T12:56:31;11.80;99.90
7658;DHT22;8462;53.156;8.220;2023-04-15T12:58:58;11.70;99.90
7658;DHT22;8462;53.156;8.220;2023-04-15T13:01:25;11.80;99.90
7658;DHT22;8462;53.156;8.220;2023-04-15T13:03:52;11.80;99.90
7658;DHT22;8462;53.156;8.220;2023-04-15T13:06:19;11.70;99.90
7658;DHT22;8462;53.156;8.220;2023-04-15T13:08:46;11.70;99.90
7658;DHT22;8462;53.156;8.220;2023-04-15T13:11:14;11.60;99.90
7658;DHT22;8462;53.156;8.220;2023-04-15T13:13:42;11.70;99.90
7658;DHT22;8462;53.156;8.220;2023-04-15T13:16:10;11.60;99.90
7658;DHT22;8462;53.156;8.220;2023-04-15T13:18:36;11.60;99.90
7658;DHT22;8462;53.156;8.220;2023-04-15T13:21:03;11.60;99.90
7658;DHT22;8462;53.156;8.220;2023-04-15T13:23:32;11.60;99.90
7658;DHT22;8462;53.156;8.220;2023-04-15T13:25:59;11.50;99.90
7658;DHT22;8462;53.156;8.220;2023-04-15T13:28:27;11.50;99.90
7658;DHT22;8462;53.156;8.220;2023-04-15T13:30:54;11.50;99.90
7658;DHT22;8462;53.156;8.220;2023-04-15T13:33:21;11.60;99.90
7658;DHT22;8462;53.156;8.220;2023-04-15T13:35:48;11.60;99.90
7658;DHT22;8462;53.156;8.220;2023-04-15T13:38:15;11.60;99.90
7658;DHT22;8462;53.156;8.220;2023-04-15T13:40:41;11.60;99.90
7658;DHT22;8462;53.156;8.220;2023-04-15T13:43:08;11.70;99.90
7658;DHT22;8462;53.156;8.220;2023-04-15T13:45:37;11.70;99.90
7658;DHT22;8462;53.156;8.220;2023-04-15T13:48:05;11.70;99.90
7658;DHT22;8462;53.156;8.220;2023-04-15T13:50:32;11.70;99.90
7658;DHT22;8462;53.156;8.220;2023-04-15T13:52:59;11.70;99.90
7658;DHT22;8462;53.156;8.220;2023-04-15T13:55:26;11.70;99.90
7658;DHT22;8462;53.156;8.220;2023-04-15T13:57:52;11.80;99.90
7658;DHT22;8462;53.156;8.220;2023-04-15T14:00:19;11.80;99.90
7658;DHT22;8462;53.156;8.220;2023-04-15T14:02:48;11.90;99.90
7658;DHT22;8462;53.156;8.220;2023-04-15T14:05:15;12.00;99.90
7658;DHT22;8462;53.156;8.220;2023-04-15T14:07:42;12.00;99.90
7658;DHT22;8462;53.156;8.220;2023-04-15T14:10:09;12.20;99.90
7658;DHT22;8462;53.156;8.220;2023-04-15T14:12:36;12.30;99.90
7658;DHT22;8462;53.156;8.220;2023-04-15T14:15:03;12.40;99.90
7658;DHT22;8462;53.156;8.220;2023-04-15T14:17:32;12.50;99.90
7658;DHT22;8462;53.156;8.220;2023-04-15T14:20:00;12.50;99.90
7658;DHT22;8462;53.156;8.220;2023-04-15T14:22:28;12.70;99.90
7658;DHT22;8462;53.156;8.220;2023-04-15T14:24:54;12.80;99.90
7658;DHT22;8462;53.156;8.220;2023-04-15T14:27:22;12.90;99.90
7658;DHT22;8462;53.156;8.220;2023-04-15T14:29:49;13.00;99.90
7658;DHT22;8462;53.156;8.220;2023-04-15T14:32:15;13.20;99.90
7658;DHT22;8462;53.156;8.220;2023-04-15T14:34:42;13.40;99.90
7658;DHT22;8462;53.156;8.220;2023-04-15T14:37:11;13.70;99.90
7658;DHT22;8462;53.156;8.220;2023-04-15T14:39:37;13.90;99.90
7658;DHT22;8462;53.156;8.220;2023-04-15T14:42:04;14.20;99.90
7658;DHT22;8462;53.156;8.220;2023-04-15T14:44:31;14.40;99.90
7658;DHT22;8462;53.156;8.220;2023-04-15T14:46:58;14.40;99.90
7658;DHT22;8462;53.156;8.220;2023-04-15T14:49:25;14.40;99.60
7658;DHT22;8462;53.156;8.220;2023-04-15T14:51:52;14.40;99.90
7658;DHT22;8462;53.156;8.220;2023-04-15T14:54:20;14.40;99.90
7658;DHT22;8462;53.156;8.220;2023-04-15T14:56:47;14.30;98.40
7658;DHT22;8462;53.156;8.220;2023-04-15T14:59:14;14.30;99.20
7658;DHT22;8462;53.156;8.220;2023-04-15T15:01:41;14.30;99.90
7658;DHT22;8462;53.156;8.220;2023-04-15T15:04:09;14.40;99.90
7658;DHT22;8462;53.156;8.220;2023-04-15T15:06:36;14.40;98.50
7658;DHT22;8462;53.156;8.220;2023-04-15T15:09:03;14.30;98.80
7658;DHT22;8462;53.156;8.220;2023-04-15T15:11:31;14.30;99.50
7658;DHT22;8462;53.156;8.220;2023-04-15T15:13:58;14.40;99.20
7658;DHT22;8462;53.156;8.220;2023-04-15T15:16:25;14.40;99.40
7658;DHT22;8462;53.156;8.220;2023-04-15T15:18:54;14.50;98.10
7658;DHT22;8462;53.156;8.220;2023-04-15T15:21:21;14.60;98.90
7658;DHT22;8462;53.156;8.220;2023-04-15T15:23:48;14.70;98.10
7658;DHT22;8462;53.156;8.220;2023-04-15T15:26:15;14.70;97.30
7658;DHT22;8462;53.156;8.220;2023-04-15T15:28:45;14.80;96.80
7658;DHT22;8462;53.156;8.220;2023-04-15T15:31:12;14.80;97.60
7658;DHT22;8462;53.156;8.220;2023-04-15T15:33:38;14.80;97.50
7658;DHT22;8462;53.156;8.220;2023-04-15T15:36:05;14.80;96.80
7658;DHT22;8462;53.156;8.220;2023-04-15T15:38:32;14.80;97.40
7658;DHT22;8462;53.156;8.220;2023-04-15T15:40:59;15.00;97.40
7658;DHT22;8462;53.156;8.220;2023-04-15T15:43:26;15.10;96.20
7658;DHT22;8462;53.156;8.220;2023-04-15T15:45:55;15.20;96.80
7658;DHT22;8462;53.156;8.220;2023-04-15T15:48:22;15.20;95.60
7658;DHT22;8462;53.156;8.220;2023-04-15T15:50:49;15.10;94.90
7658;DHT22;8462;53.156;8.220;2023-04-15T15:53:17;15.10;95.30
7658;DHT22;8462;53.156;8.220;2023-04-15T15:55:45;15.00;95.50
7658;DHT22;8462;53.156;8.220;2023-04-15T15:58:13;14.90;96.20
7658;DHT22;8462;53.156;8.220;2023-04-15T16:00:40;14.80;95.90
7658;DHT22;8462;53.156;8.220;2023-04-15T16:03:08;14.70;96.60
7658;DHT22;8462;53.156;8.220;2023-04-15T16:05:37;14.70;97.20
7658;DHT22;8462;53.156;8.220;2023-04-15T16:08:04;14.70;96.70
7658;DHT22;8462;53.156;8.220;2023-04-15T16:10:31;14.70;96.90
7658;DHT22;8462;53.156;8.220;2023-04-15T16:12:58;14.60;97.20